Terminal Aerodrome Forecast
Issued by NWS

Home | Current Version | Previous Version | Text Only | Print | Product List | Glossary On
Versions: 1 2 3 4 5 6 7 8 9 10 11 12 13 14
000
FTUS41 KBGM 252320
TAFITH
TAF
KITH 252320Z 2600/2624 31003KT P6SM SCT080
     FM260200 VRB03KT P6SM SCT250
     FM261300 18005KT P6SM SCT100
     FM261600 19007KT P6SM SCT045 BKN100=

USA.gov is the U.S. government's official web portal to all federal, state and local government web resources and services.